sensor_id;sensor_type;location;lat;lon;timestamp;temperature;humidity
22787;DHT22;63134;52.020;4.714;2022-09-09T00:00:18;16.20;95.40
22787;DHT22;63134;52.020;4.714;2022-09-09T00:03:10;16.20;95.60
22787;DHT22;63134;52.020;4.714;2022-09-09T00:06:06;16.20;95.70
22787;DHT22;63134;52.020;4.714;2022-09-09T00:09:16;16.10;95.70
22787;DHT22;63134;52.020;4.714;2022-09-09T00:12:11;16.10;95.90
22787;DHT22;63134;52.020;4.714;2022-09-09T00:15:07;16.10;96.10
22787;DHT22;63134;52.020;4.714;2022-09-09T00:18:05;16.10;96.20
22787;DHT22;63134;52.020;4.714;2022-09-09T00:21:12;16.10;96.30
22787;DHT22;63134;52.020;4.714;2022-09-09T00:24:00;16.00;96.50
22787;DHT22;63134;52.020;4.714;2022-09-09T00:26:55;16.00;96.80
22787;DHT22;63134;52.020;4.714;2022-09-09T00:32:35;15.90;97.10
22787;DHT22;63134;52.020;4.714;2022-09-09T00:35:37;15.90;96.80
22787;DHT22;63134;52.020;4.714;2022-09-09T00:38:38;15.90;96.80
22787;DHT22;63134;52.020;4.714;2022-09-09T00:44:53;15.80;97.00
22787;DHT22;63134;52.020;4.714;2022-09-09T00:47:50;15.80;97.10
22787;DHT22;63134;52.020;4.714;2022-09-09T00:50:45;15.70;97.10
22787;DHT22;63134;52.020;4.714;2022-09-09T00:57:21;15.70;97.20
22787;DHT22;63134;52.020;4.714;2022-09-09T01:00:27;15.60;97.20
22787;DHT22;63134;52.020;4.714;2022-09-09T01:06:31;15.60;97.50
22787;DHT22;63134;52.020;4.714;2022-09-09T01:09:34;15.60;97.40
22787;DHT22;63134;52.020;4.714;2022-09-09T01:12:41;15.50;97.40
22787;DHT22;63134;52.020;4.714;2022-09-09T01:15:31;15.50;97.50
22787;DHT22;63134;52.020;4.714;2022-09-09T01:18:20;15.50;97.70
22787;DHT22;63134;52.020;4.714;2022-09-09T01:21:30;15.50;98.10
22787;DHT22;63134;52.020;4.714;2022-09-09T01:24:20;15.40;98.20
22787;DHT22;63134;52.020;4.714;2022-09-09T01:27:34;15.50;98.50
22787;DHT22;63134;52.020;4.714;2022-09-09T01:30:21;15.50;98.60
22787;DHT22;63134;52.020;4.714;2022-09-09T01:33:15;15.50;98.80
22787;DHT22;63134;52.020;4.714;2022-09-09T01:36:08;15.50;98.90
22787;DHT22;63134;52.020;4.714;2022-09-09T01:39:02;15.60;99.20
22787;DHT22;63134;52.020;4.714;2022-09-09T01:41:47;15.70;99.40
22787;DHT22;63134;52.020;4.714;2022-09-09T01:44:39;15.70;99.50
22787;DHT22;63134;52.020;4.714;2022-09-09T01:47:27;15.80;99.50
22787;DHT22;63134;52.020;4.714;2022-09-09T01:50:35;15.80;99.40
22787;DHT22;63134;52.020;4.714;2022-09-09T01:53:21;15.80;99.30
22787;DHT22;63134;52.020;4.714;2022-09-09T01:59:14;15.80;98.80
22787;DHT22;63134;52.020;4.714;2022-09-09T02:05:38;15.70;99.10
22787;DHT22;63134;52.020;4.714;2022-09-09T02:08:50;15.70;99.30
22787;DHT22;63134;52.020;4.714;2022-09-09T02:11:36;15.70;99.60
22787;DHT22;63134;52.020;4.714;2022-09-09T02:14:50;15.80;99.90
22787;DHT22;63134;52.020;4.714;2022-09-09T02:17:38;15.80;99.90
22787;DHT22;63134;52.020;4.714;2022-09-09T02:20:31;15.90;99.90
22787;DHT22;63134;52.020;4.714;2022-09-09T02:23:20;15.90;99.90
22787;DHT22;63134;52.020;4.714;2022-09-09T02:26:11;15.90;99.80
22787;DHT22;63134;52.020;4.714;2022-09-09T02:29:01;15.80;99.50
22787;DHT22;63134;52.020;4.714;2022-09-09T02:31:49;15.80;99.30
22787;DHT22;63134;52.020;4.714;2022-09-09T02:34:44;15.70;99.20
22787;DHT22;63134;52.020;4.714;2022-09-09T02:37:37;15.70;99.30
22787;DHT22;63134;52.020;4.714;2022-09-09T02:40:23;15.70;99.30
22787;DHT22;63134;52.020;4.714;2022-09-09T02:43:15;15.70;99.50
22787;DHT22;63134;52.020;4.714;2022-09-09T02:49:25;15.60;99.50
22787;DHT22;63134;52.020;4.714;2022-09-09T02:52:15;15.70;99.60
22787;DHT22;63134;52.020;4.714;2022-09-09T02:55:16;15.60;99.60
22787;DHT22;63134;52.020;4.714;2022-09-09T02:58:06;15.60;99.50
22787;DHT22;63134;52.020;4.714;2022-09-09T03:00:53;15.60;99.30
22787;DHT22;63134;52.020;4.714;2022-09-09T03:03:38;15.60;99.50
22787;DHT22;63134;52.020;4.714;2022-09-09T03:06:29;15.60;99.20
22787;DHT22;63134;52.020;4.714;2022-09-09T03:09:23;15.60;99.30
22787;DHT22;63134;52.020;4.714;2022-09-09T03:12:08;15.50;99.20
22787;DHT22;63134;52.020;4.714;2022-09-09T03:14:57;15.50;99.20
22787;DHT22;63134;52.020;4.714;2022-09-09T03:17:42;15.50;99.40
22787;DHT22;63134;52.020;4.714;2022-09-09T03:20:29;15.50;99.30
22787;DHT22;63134;52.020;4.714;2022-09-09T03:23:14;15.40;99.10
22787;DHT22;63134;52.020;4.714;2022-09-09T03:26:01;15.40;99.30
22787;DHT22;63134;52.020;4.714;2022-09-09T03:28:56;15.40;99.50
22787;DHT22;63134;52.020;4.714;2022-09-09T03:31:42;15.40;99.40
22787;DHT22;63134;52.020;4.714;2022-09-09T03:34:28;15.30;99.40
22787;DHT22;63134;52.020;4.714;2022-09-09T03:37:16;15.30;99.50
22787;DHT22;63134;52.020;4.714;2022-09-09T03:40:03;15.30;99.80
22787;DHT22;63134;52.020;4.714;2022-09-09T03:42:48;15.30;99.70
22787;DHT22;63134;52.020;4.714;2022-09-09T03:45:38;15.30;99.90
22787;DHT22;63134;52.020;4.714;2022-09-09T03:48:24;15.30;99.90
22787;DHT22;63134;52.020;4.714;2022-09-09T03:51:10;15.30;99.90
22787;DHT22;63134;52.020;4.714;2022-09-09T03:53:56;15.30;99.90
22787;DHT22;63134;52.020;4.714;2022-09-09T03:56:47;15.20;99.90
22787;DHT22;63134;52.020;4.714;2022-09-09T03:59:36;15.20;99.90
22787;DHT22;63134;52.020;4.714;2022-09-09T04:02:21;15.20;99.90
22787;DHT22;63134;52.020;4.714;2022-09-09T04:05:07;15.10;99.90
22787;DHT22;63134;52.020;4.714;2022-09-09T04:07:52;15.10;99.90
22787;DHT22;63134;52.020;4.714;2022-09-09T04:10:38;15.10;99.90
22787;DHT22;63134;52.020;4.714;2022-09-09T04:13:25;15.10;99.90
22787;DHT22;63134;52.020;4.714;2022-09-09T04:16:12;15.10;99.90
22787;DHT22;63134;52.020;4.714;2022-09-09T04:19:01;15.10;99.90
22787;DHT22;63134;52.020;4.714;2022-09-09T04:21:46;15.10;99.90
22787;DHT22;63134;52.020;4.714;2022-09-09T04:24:35;15.10;99.90
22787;DHT22;63134;52.020;4.714;2022-09-09T04:27:21;15.10;99.90
22787;DHT22;63134;52.020;4.714;2022-09-09T04:30:07;15.10;99.90
22787;DHT22;63134;52.020;4.714;2022-09-09T04:32:53;15.10;99.90
22787;DHT22;63134;52.020;4.714;2022-09-09T04:35:39;15.10;99.90
22787;DHT22;63134;52.020;4.714;2022-09-09T04:38:25;15.10;99.90
22787;DHT22;63134;52.020;4.714;2022-09-09T04:41:13;15.10;99.90
22787;DHT22;63134;52.020;4.714;2022-09-09T04:44:01;15.10;99.90
22787;DHT22;63134;52.020;4.714;2022-09-09T04:46:47;15.10;99.90
22787;DHT22;63134;52.020;4.714;2022-09-09T04:49:35;15.10;99.90
22787;DHT22;63134;52.020;4.714;2022-09-09T04:52:21;15.20;99.90
22787;DHT22;63134;52.020;4.714;2022-09-09T04:55:10;15.20;99.90
22787;DHT22;63134;52.020;4.714;2022-09-09T04:58:05;15.10;99.90
22787;DHT22;63134;52.020;4.714;2022-09-09T05:00:50;15.20;99.90
22787;DHT22;63134;52.020;4.714;2022-09-09T05:03:38;15.20;99.90
22787;DHT22;63134;52.020;4.714;2022-09-09T05:06:26;15.20;99.90
22787;DHT22;63134;52.020;4.714;2022-09-09T05:09:15;15.20;99.90
22787;DHT22;63134;52.020;4.714;2022-09-09T05:12:02;15.20;99.90
22787;DHT22;63134;52.020;4.714;2022-09-09T05:14:55;15.30;99.90
22787;DHT22;63134;52.020;4.714;2022-09-09T05:17:41;15.30;99.90
22787;DHT22;63134;52.020;4.714;2022-09-09T05:20:28;15.30;99.90
22787;DHT22;63134;52.020;4.714;2022-09-09T05:23:14;15.30;99.90
22787;DHT22;63134;52.020;4.714;2022-09-09T05:25:59;15.30;99.90
22787;DHT22;63134;52.020;4.714;2022-09-09T05:28:46;15.30;99.90
22787;DHT22;63134;52.020;4.714;2022-09-09T05:31:32;15.40;99.90
22787;DHT22;63134;52.020;4.714;2022-09-09T05:34:21;15.40;99.90
22787;DHT22;63134;52.020;4.714;2022-09-09T05:37:12;15.50;99.90
22787;DHT22;63134;52.020;4.714;2022-09-09T05:39:58;15.60;99.90
22787;DHT22;63134;52.020;4.714;2022-09-09T05:42:45;15.60;99.90
22787;DHT22;63134;52.020;4.714;2022-09-09T05:45:30;15.70;99.90
22787;DHT22;63134;52.020;4.714;2022-09-09T05:48:16;15.80;99.90
22787;DHT22;63134;52.020;4.714;2022-09-09T05:51:04;15.90;99.90
22787;DHT22;63134;52.020;4.714;2022-09-09T05:53:51;16.00;99.90
22787;DHT22;63134;52.020;4.714;2022-09-09T05:56:37;16.20;99.90
22787;DHT22;63134;52.020;4.714;2022-09-09T05:59:25;16.30;99.90
22787;DHT22;63134;52.020;4.714;2022-09-09T06:02:13;16.40;99.90
22787;DHT22;63134;52.020;4.714;2022-09-09T06:04:59;16.50;99.90
22787;DHT22;63134;52.020;4.714;2022-09-09T06:07:46;16.60;99.90
22787;DHT22;63134;52.020;4.714;2022-09-09T06:10:32;16.70;99.90
22787;DHT22;63134;52.020;4.714;2022-09-09T06:13:19;16.80;99.90
22787;DHT22;63134;52.020;4.714;2022-09-09T06:16:08;16.80;99.90
22787;DHT22;63134;52.020;4.714;2022-09-09T06:18:55;16.90;99.90
22787;DHT22;63134;52.020;4.714;2022-09-09T06:21:42;17.00;99.90
22787;DHT22;63134;52.020;4.714;2022-09-09T06:24:29;17.10;99.90
22787;DHT22;63134;52.020;4.714;2022-09-09T06:27:16;17.10;99.90
22787;DHT22;63134;52.020;4.714;2022-09-09T06:30:03;17.10;99.90
22787;DHT22;63134;52.020;4.714;2022-09-09T06:32:48;17.20;99.90
22787;DHT22;63134;52.020;4.714;2022-09-09T06:35:35;17.20;99.90
22787;DHT22;63134;52.020;4.714;2022-09-09T06:38:21;17.20;99.90
22787;DHT22;63134;52.020;4.714;2022-09-09T06:41:09;17.30;99.90
22787;DHT22;63134;52.020;4.714;2022-09-09T06:43:57;17.40;99.90
22787;DHT22;63134;52.020;4.714;2022-09-09T06:46:51;17.50;99.90
22787;DHT22;63134;52.020;4.714;2022-09-09T06:49:37;17.60;99.90
22787;DHT22;63134;52.020;4.714;2022-09-09T06:52:25;17.60;99.90
22787;DHT22;63134;52.020;4.714;2022-09-09T06:55:13;17.70;99.90
22787;DHT22;63134;52.020;4.714;2022-09-09T06:58:00;17.70;99.10
22787;DHT22;63134;52.020;4.714;2022-09-09T07:00:48;17.70;99.10
22787;DHT22;63134;52.020;4.714;2022-09-09T07:03:34;17.70;98.60
22787;DHT22;63134;52.020;4.714;2022-09-09T07:06:40;17.70;97.90
22787;DHT22;63134;52.020;4.714;2022-09-09T07:09:27;17.80;98.20
22787;DHT22;63134;52.020;4.714;2022-09-09T07:12:14;17.80;96.80
22787;DHT22;63134;52.020;4.714;2022-09-09T07:15:10;17.80;96.90
22787;DHT22;63134;52.020;4.714;2022-09-09T07:18:01;17.80;96.50
22787;DHT22;63134;52.020;4.714;2022-09-09T07:20:53;17.90;96.30
22787;DHT22;63134;52.020;4.714;2022-09-09T07:23:41;18.00;95.80
22787;DHT22;63134;52.020;4.714;2022-09-09T07:26:30;18.10;95.90
22787;DHT22;63134;52.020;4.714;2022-09-09T07:29:17;18.20;95.40
22787;DHT22;63134;52.020;4.714;2022-09-09T07:32:06;18.40;95.40
22787;DHT22;63134;52.020;4.714;2022-09-09T07:34:54;18.50;94.60
22787;DHT22;63134;52.020;4.714;2022-09-09T07:37:39;18.60;94.30
22787;DHT22;63134;52.020;4.714;2022-09-09T07:40:26;18.60;92.90
22787;DHT22;63134;52.020;4.714;2022-09-09T07:43:11;18.70;93.00
22787;DHT22;63134;52.020;4.714;2022-09-09T07:46:01;18.80;92.30
22787;DHT22;63134;52.020;4.714;2022-09-09T07:48:50;18.70;91.70
22787;DHT22;63134;52.020;4.714;2022-09-09T07:51:43;18.70;91.70
22787;DHT22;63134;52.020;4.714;2022-09-09T07:54:30;18.70;91.10
22787;DHT22;63134;52.020;4.714;2022-09-09T07:57:19;18.60;91.10
22787;DHT22;63134;52.020;4.714;2022-09-09T08:00:05;18.60;91.10
22787;DHT22;63134;52.020;4.714;2022-09-09T08:02:56;18.60;90.90
22787;DHT22;63134;52.020;4.714;2022-09-09T08:05:42;18.50;90.60
22787;DHT22;63134;52.020;4.714;2022-09-09T08:08:29;18.50;90.80
22787;DHT22;63134;52.020;4.714;2022-09-09T08:11:15;18.40;90.70
22787;DHT22;63134;52.020;4.714;2022-09-09T08:14:00;18.40;90.80
22787;DHT22;63134;52.020;4.714;2022-09-09T08:16:48;18.30;90.70
22787;DHT22;63134;52.020;4.714;2022-09-09T08:19:38;18.30;90.80
22787;DHT22;63134;52.020;4.714;2022-09-09T08:22:29;18.20;91.20
22787;DHT22;63134;52.020;4.714;2022-09-09T08:25:14;18.20;90.90
22787;DHT22;63134;52.020;4.714;2022-09-09T08:27:59;18.20;91.30
22787;DHT22;63134;52.020;4.714;2022-09-09T08:30:45;18.20;91.10
22787;DHT22;63134;52.020;4.714;2022-09-09T08:33:31;18.30;90.90
22787;DHT22;63134;52.020;4.714;2022-09-09T08:36:18;18.40;90.80
22787;DHT22;63134;52.020;4.714;2022-09-09T08:39:06;18.40;90.80
22787;DHT22;63134;52.020;4.714;2022-09-09T08:45:23;18.40;90.50
22787;DHT22;63134;52.020;4.714;2022-09-09T08:48:14;18.50;90.50
22787;DHT22;63134;52.020;4.714;2022-09-09T08:51:06;18.50;90.40
22787;DHT22;63134;52.020;4.714;2022-09-09T08:53:58;18.50;90.20
22787;DHT22;63134;52.020;4.714;2022-09-09T08:56:47;18.50;90.10
22787;DHT22;63134;52.020;4.714;2022-09-09T08:59:33;18.50;90.20
22787;DHT22;63134;52.020;4.714;2022-09-09T09:05:48;18.50;90.30
22787;DHT22;63134;52.020;4.714;2022-09-09T09:08:46;18.40;90.20
22787;DHT22;63134;52.020;4.714;2022-09-09T09:11:38;18.40;90.30
22787;DHT22;63134;52.020;4.714;2022-09-09T09:14:25;18.30;90.50
22787;DHT22;63134;52.020;4.714;2022-09-09T09:17:19;18.30;90.60
22787;DHT22;63134;52.020;4.714;2022-09-09T09:20:12;18.20;90.90
22787;DHT22;63134;52.020;4.714;2022-09-09T09:23:02;18.20;91.30
22787;DHT22;63134;52.020;4.714;2022-09-09T09:25:50;18.20;91.40
22787;DHT22;63134;52.020;4.714;2022-09-09T09:28:37;18.20;91.50
22787;DHT22;63134;52.020;4.714;2022-09-09T09:31:30;18.20;91.60
22787;DHT22;63134;52.020;4.714;2022-09-09T09:34:16;18.20;91.60
22787;DHT22;63134;52.020;4.714;2022-09-09T09:37:15;18.20;91.70
22787;DHT22;63134;52.020;4.714;2022-09-09T09:40:14;18.30;91.90
22787;DHT22;63134;52.020;4.714;2022-09-09T09:43:16;18.40;91.80
22787;DHT22;63134;52.020;4.714;2022-09-09T09:46:05;18.30;91.80
22787;DHT22;63134;52.020;4.714;2022-09-09T09:49:05;18.30;92.00
22787;DHT22;63134;52.020;4.714;2022-09-09T09:51:53;18.40;92.20
22787;DHT22;63134;52.020;4.714;2022-09-09T09:54:42;18.50;92.50
22787;DHT22;63134;52.020;4.714;2022-09-09T09:57:30;18.60;92.50
22787;DHT22;63134;52.020;4.714;2022-09-09T10:00:23;18.80;92.70
22787;DHT22;63134;52.020;4.714;2022-09-09T10:03:31;19.00;92.60
22787;DHT22;63134;52.020;4.714;2022-09-09T10:06:36;19.30;92.50
22787;DHT22;63134;52.020;4.714;2022-09-09T10:09:30;19.70;92.30
22787;DHT22;63134;52.020;4.714;2022-09-09T10:21:20;20.20;87.40
22787;DHT22;63134;52.020;4.714;2022-09-09T10:24:28;20.20;87.20
22787;DHT22;63134;52.020;4.714;2022-09-09T10:33:49;20.30;85.10
22787;DHT22;63134;52.020;4.714;2022-09-09T10:36:42;20.40;83.70
22787;DHT22;63134;52.020;4.714;2022-09-09T10:39:36;20.50;83.00
22787;DHT22;63134;52.020;4.714;2022-09-09T10:42:31;20.40;82.30
22787;DHT22;63134;52.020;4.714;2022-09-09T10:45:23;20.30;80.90
22787;DHT22;63134;52.020;4.714;2022-09-09T10:58:23;19.90;83.40
22787;DHT22;63134;52.020;4.714;2022-09-09T11:01:24;19.80;84.20
22787;DHT22;63134;52.020;4.714;2022-09-09T11:07:08;19.70;84.40
22787;DHT22;63134;52.020;4.714;2022-09-09T11:10:02;19.60;84.80
22787;DHT22;63134;52.020;4.714;2022-09-09T11:12:55;19.70;85.80
22787;DHT22;63134;52.020;4.714;2022-09-09T11:15:46;20.00;85.60
22787;DHT22;63134;52.020;4.714;2022-09-09T11:18:38;20.30;84.60
22787;DHT22;63134;52.020;4.714;2022-09-09T11:21:32;20.60;83.10
22787;DHT22;63134;52.020;4.714;2022-09-09T11:24:29;20.80;82.20
22787;DHT22;63134;52.020;4.714;2022-09-09T11:30:20;21.20;80.00
22787;DHT22;63134;52.020;4.714;2022-09-09T11:42:42;20.90;79.00
22787;DHT22;63134;52.020;4.714;2022-09-09T11:45:29;20.90;79.10
22787;DHT22;63134;52.020;4.714;2022-09-09T11:54:29;20.90;77.70
22787;DHT22;63134;52.020;4.714;2022-09-09T11:57:33;20.70;78.90
22787;DHT22;63134;52.020;4.714;2022-09-09T12:03:42;20.20;81.10
22787;DHT22;63134;52.020;4.714;2022-09-09T12:06:41;20.00;82.90
22787;DHT22;63134;52.020;4.714;2022-09-09T12:09:45;19.90;84.80
22787;DHT22;63134;52.020;4.714;2022-09-09T12:12:36;19.80;85.80
22787;DHT22;63134;52.020;4.714;2022-09-09T12:15:28;19.70;87.00
22787;DHT22;63134;52.020;4.714;2022-09-09T12:21:44;19.70;88.00
22787;DHT22;63134;52.020;4.714;2022-09-09T12:24:37;19.60;88.50
22787;DHT22;63134;52.020;4.714;2022-09-09T12:27:33;19.50;89.00
22787;DHT22;63134;52.020;4.714;2022-09-09T12:30:31;19.50;89.90
22787;DHT22;63134;52.020;4.714;2022-09-09T12:33:19;19.40;90.10
22787;DHT22;63134;52.020;4.714;2022-09-09T12:36:05;19.30;90.40
22787;DHT22;63134;52.020;4.714;2022-09-09T12:38:53;19.10;91.10
22787;DHT22;63134;52.020;4.714;2022-09-09T12:41:40;18.90;91.10
22787;DHT22;63134;52.020;4.714;2022-09-09T12:44:26;18.80;91.90
22787;DHT22;63134;52.020;4.714;2022-09-09T12:47:15;18.80;92.80
22787;DHT22;63134;52.020;4.714;2022-09-09T12:50:01;18.80;93.80
22787;DHT22;63134;52.020;4.714;2022-09-09T12:52:48;18.80;94.40
22787;DHT22;63134;52.020;4.714;2022-09-09T12:55:36;18.80;94.30
22787;DHT22;63134;52.020;4.714;2022-09-09T12:58:23;18.80;94.40
22787;DHT22;63134;52.020;4.714;2022-09-09T13:01:20;18.90;94.40
22787;DHT22;63134;52.020;4.714;2022-09-09T13:04:20;18.90;94.30
22787;DHT22;63134;52.020;4.714;2022-09-09T13:07:07;18.90;94.50
22787;DHT22;63134;52.020;4.714;2022-09-09T13:09:58;19.10;94.50
22787;DHT22;63134;52.020;4.714;2022-09-09T13:12:44;19.10;94.00
22787;DHT22;63134;52.020;4.714;2022-09-09T13:15:29;19.10;93.50
22787;DHT22;63134;52.020;4.714;2022-09-09T13:18:14;19.10;93.10
22787;DHT22;63134;52.020;4.714;2022-09-09T13:21:00;19.20;93.00
22787;DHT22;63134;52.020;4.714;2022-09-09T13:23:50;19.20;93.10
22787;DHT22;63134;52.020;4.714;2022-09-09T13:26:37;19.20;92.70
22787;DHT22;63134;52.020;4.714;2022-09-09T13:29:24;19.10;93.00
22787;DHT22;63134;52.020;4.714;2022-09-09T13:32:17;19.10;92.80
22787;DHT22;63134;52.020;4.714;2022-09-09T13:35:02;19.10;93.00
22787;DHT22;63134;52.020;4.714;2022-09-09T13:37:48;19.30;93.20
22787;DHT22;63134;52.020;4.714;2022-09-09T13:40:33;19.30;93.00
22787;DHT22;63134;52.020;4.714;2022-09-09T13:43:22;19.50;93.50
22787;DHT22;63134;52.020;4.714;2022-09-09T13:49:22;20.70;92.10
22787;DHT22;63134;52.020;4.714;2022-09-09T13:52:17;21.00;90.90
22787;DHT22;63134;52.020;4.714;2022-09-09T13:55:03;21.30;90.20
22787;DHT22;63134;52.020;4.714;2022-09-09T13:58:03;21.40;87.10
22787;DHT22;63134;52.020;4.714;2022-09-09T14:00:49;21.50;85.20
22787;DHT22;63134;52.020;4.714;2022-09-09T14:03:35;21.40;84.30
22787;DHT22;63134;52.020;4.714;2022-09-09T14:06:23;21.30;83.40
22787;DHT22;63134;52.020;4.714;2022-09-09T14:09:14;21.00;83.30
22787;DHT22;63134;52.020;4.714;2022-09-09T14:12:01;20.80;84.00
22787;DHT22;63134;52.020;4.714;2022-09-09T14:14:47;20.40;85.20
22787;DHT22;63134;52.020;4.714;2022-09-09T14:17:33;19.90;86.90
22787;DHT22;63134;52.020;4.714;2022-09-09T14:20:18;19.70;89.30
22787;DHT22;63134;52.020;4.714;2022-09-09T14:23:04;19.40;90.00
22787;DHT22;63134;52.020;4.714;2022-09-09T14:25:50;19.20;90.70
22787;DHT22;63134;52.020;4.714;2022-09-09T14:28:36;19.10;91.50
22787;DHT22;63134;52.020;4.714;2022-09-09T14:31:42;19.00;92.30
22787;DHT22;63134;52.020;4.714;2022-09-09T14:34:30;18.90;93.00
22787;DHT22;63134;52.020;4.714;2022-09-09T14:37:17;18.90;93.60
22787;DHT22;63134;52.020;4.714;2022-09-09T14:40:03;18.90;94.20
22787;DHT22;63134;52.020;4.714;2022-09-09T14:42:49;19.00;94.90
22787;DHT22;63134;52.020;4.714;2022-09-09T14:45:35;19.10;95.40
22787;DHT22;63134;52.020;4.714;2022-09-09T14:48:22;19.30;95.70
22787;DHT22;63134;52.020;4.714;2022-09-09T14:51:10;19.50;95.70
22787;DHT22;63134;52.020;4.714;2022-09-09T14:53:59;19.60;95.70
22787;DHT22;63134;52.020;4.714;2022-09-09T14:56:44;19.80;94.80
22787;DHT22;63134;52.020;4.714;2022-09-09T14:59:30;19.90;94.90
22787;DHT22;63134;52.020;4.714;2022-09-09T15:02:15;20.10;94.40
22787;DHT22;63134;52.020;4.714;2022-09-09T15:05:01;20.30;94.50
22787;DHT22;63134;52.020;4.714;2022-09-09T15:07:46;20.80;93.50
22787;DHT22;63134;52.020;4.714;2022-09-09T15:10:33;21.40;92.20
22787;DHT22;63134;52.020;4.714;2022-09-09T15:13:24;22.10;91.40
22787;DHT22;63134;52.020;4.714;2022-09-09T15:16:15;23.10;90.40
22787;DHT22;63134;52.020;4.714;2022-09-09T15:19:02;24.00;86.10
22787;DHT22;63134;52.020;4.714;2022-09-09T15:21:47;24.70;78.10
22787;DHT22;63134;52.020;4.714;2022-09-09T15:24:33;25.30;73.50
22787;DHT22;63134;52.020;4.714;2022-09-09T15:27:18;25.30;70.00
22787;DHT22;63134;52.020;4.714;2022-09-09T15:30:05;26.00;67.50
22787;DHT22;63134;52.020;4.714;2022-09-09T15:32:50;26.70;65.80
22787;DHT22;63134;52.020;4.714;2022-09-09T15:35:38;26.80;60.70
22787;DHT22;63134;52.020;4.714;2022-09-09T15:38:23;26.60;59.90
22787;DHT22;63134;52.020;4.714;2022-09-09T15:41:09;26.70;59.50
22787;DHT22;63134;52.020;4.714;2022-09-09T15:43:55;27.00;59.10
22787;DHT22;63134;52.020;4.714;2022-09-09T15:46:53;26.90;57.40
22787;DHT22;63134;52.020;4.714;2022-09-09T15:49:38;26.80;58.30
22787;DHT22;63134;52.020;4.714;2022-09-09T15:52:24;26.30;57.40
22787;DHT22;63134;52.020;4.714;2022-09-09T15:55:09;25.70;58.80
22787;DHT22;63134;52.020;4.714;2022-09-09T15:57:54;25.20;60.00
22787;DHT22;63134;52.020;4.714;2022-09-09T16:00:40;24.70;61.80
22787;DHT22;63134;52.020;4.714;2022-09-09T16:03:28;24.20;63.50
22787;DHT22;63134;52.020;4.714;2022-09-09T16:06:14;23.80;64.50
22787;DHT22;63134;52.020;4.714;2022-09-09T16:09:03;23.50;66.10
22787;DHT22;63134;52.020;4.714;2022-09-09T16:11:48;23.20;66.90
22787;DHT22;63134;52.020;4.714;2022-09-09T16:14:34;22.80;68.40
22787;DHT22;63134;52.020;4.714;2022-09-09T16:17:21;22.60;69.40
22787;DHT22;63134;52.020;4.714;2022-09-09T16:20:06;22.30;70.90
22787;DHT22;63134;52.020;4.714;2022-09-09T16:22:56;22.10;71.90
22787;DHT22;63134;52.020;4.714;2022-09-09T16:25:42;21.90;73.20
22787;DHT22;63134;52.020;4.714;2022-09-09T16:28:28;21.60;74.10
22787;DHT22;63134;52.020;4.714;2022-09-09T16:31:22;21.40;76.40
22787;DHT22;63134;52.020;4.714;2022-09-09T16:34:09;20.90;80.20
22787;DHT22;63134;52.020;4.714;2022-09-09T16:36:54;20.50;83.90
22787;DHT22;63134;52.020;4.714;2022-09-09T16:39:39;20.20;85.20
22787;DHT22;63134;52.020;4.714;2022-09-09T16:42:28;20.10;86.10
22787;DHT22;63134;52.020;4.714;2022-09-09T16:45:13;20.10;87.50
22787;DHT22;63134;52.020;4.714;2022-09-09T16:47:59;19.90;89.90
22787;DHT22;63134;52.020;4.714;2022-09-09T16:50:47;19.90;90.50
22787;DHT22;63134;52.020;4.714;2022-09-09T16:53:34;19.80;90.80
22787;DHT22;63134;52.020;4.714;2022-09-09T16:56:24;19.80;91.10
22787;DHT22;63134;52.020;4.714;2022-09-09T16:59:14;20.10;93.30
22787;DHT22;63134;52.020;4.714;2022-09-09T17:01:59;20.20;93.20
22787;DHT22;63134;52.020;4.714;2022-09-09T17:04:46;20.00;92.40
22787;DHT22;63134;52.020;4.714;2022-09-09T17:07:32;20.00;92.30
22787;DHT22;63134;52.020;4.714;2022-09-09T17:10:17;19.80;91.60
22787;DHT22;63134;52.020;4.714;2022-09-09T17:13:03;19.60;90.50
22787;DHT22;63134;52.020;4.714;2022-09-09T17:15:48;19.40;90.30
22787;DHT22;63134;52.020;4.714;2022-09-09T17:18:34;19.20;90.40
22787;DHT22;63134;52.020;4.714;2022-09-09T17:21:22;19.20;90.60
22787;DHT22;63134;52.020;4.714;2022-09-09T17:24:08;19.10;90.70
22787;DHT22;63134;52.020;4.714;2022-09-09T17:26:54;19.00;91.00
22787;DHT22;63134;52.020;4.714;2022-09-09T17:29:40;19.00;91.10
22787;DHT22;63134;52.020;4.714;2022-09-09T17:32:25;18.90;91.30
22787;DHT22;63134;52.020;4.714;2022-09-09T17:35:14;18.90;91.70
22787;DHT22;63134;52.020;4.714;2022-09-09T17:38:00;18.80;91.70
22787;DHT22;63134;52.020;4.714;2022-09-09T17:40:45;18.90;91.90
22787;DHT22;63134;52.020;4.714;2022-09-09T17:43:30;18.80;92.00
22787;DHT22;63134;52.020;4.714;2022-09-09T17:46:26;18.70;92.10
22787;DHT22;63134;52.020;4.714;2022-09-09T17:49:14;18.60;92.20
22787;DHT22;63134;52.020;4.714;2022-09-09T17:52:01;18.60;92.50
22787;DHT22;63134;52.020;4.714;2022-09-09T17:54:47;18.60;92.70
22787;DHT22;63134;52.020;4.714;2022-09-09T17:57:33;18.60;93.00
22787;DHT22;63134;52.020;4.714;2022-09-09T18:00:18;18.60;93.30
22787;DHT22;63134;52.020;4.714;2022-09-09T18:03:04;18.60;93.40
22787;DHT22;63134;52.020;4.714;2022-09-09T18:05:49;18.60;93.60
22787;DHT22;63134;52.020;4.714;2022-09-09T18:08:35;18.60;93.80
22787;DHT22;63134;52.020;4.714;2022-09-09T18:11:23;18.60;93.50
22787;DHT22;63134;52.020;4.714;2022-09-09T18:14:11;18.50;93.60
22787;DHT22;63134;52.020;4.714;2022-09-09T18:16:58;18.40;93.80
22787;DHT22;63134;52.020;4.714;2022-09-09T18:19:44;18.30;94.20
22787;DHT22;63134;52.020;4.714;2022-09-09T18:22:29;18.30;94.50
22787;DHT22;63134;52.020;4.714;2022-09-09T18:25:15;18.20;94.40
22787;DHT22;63134;52.020;4.714;2022-09-09T18:28:01;18.10;94.40
22787;DHT22;63134;52.020;4.714;2022-09-09T18:30:46;18.10;94.70
22787;DHT22;63134;52.020;4.714;2022-09-09T18:33:35;18.00;94.60
22787;DHT22;63134;52.020;4.714;2022-09-09T18:36:24;18.00;94.90
22787;DHT22;63134;52.020;4.714;2022-09-09T18:39:11;18.00;95.00
22787;DHT22;63134;52.020;4.714;2022-09-09T18:41:59;17.90;95.20
22787;DHT22;63134;52.020;4.714;2022-09-09T18:44:45;17.90;95.00
22787;DHT22;63134;52.020;4.714;2022-09-09T18:47:30;17.90;95.00
22787;DHT22;63134;52.020;4.714;2022-09-09T18:50:16;17.80;95.10
22787;DHT22;63134;52.020;4.714;2022-09-09T18:53:02;17.80;95.40
22787;DHT22;63134;52.020;4.714;2022-09-09T18:55:57;17.80;95.60
22787;DHT22;63134;52.020;4.714;2022-09-09T18:58:43;17.70;95.80
22787;DHT22;63134;52.020;4.714;2022-09-09T19:01:29;17.80;96.00
22787;DHT22;63134;52.020;4.714;2022-09-09T19:04:15;17.70;96.10
22787;DHT22;63134;52.020;4.714;2022-09-09T19:07:03;17.70;96.60
22787;DHT22;63134;52.020;4.714;2022-09-09T19:09:48;17.70;96.50
22787;DHT22;63134;52.020;4.714;2022-09-09T19:12:34;17.80;97.00
22787;DHT22;63134;52.020;4.714;2022-09-09T19:15:20;17.80;96.70